sensor_id;sensor_type;location;lat;lon;timestamp;pressure;altitude;pressure_sealevel;temperature;humidity
79791;BME280;69278;52.220;5.172;2024-02-26T00:00:23;100102.25;;;6.55;83.50
79791;BME280;69278;52.220;5.172;2024-02-26T00:02:50;100064.47;;;6.28;83.41
79791;BME280;69278;52.220;5.172;2024-02-26T00:05:16;100091.13;;;6.42;83.82
79791;BME280;69278;52.220;5.172;2024-02-26T00:07:43;100081.06;;;6.38;83.95
79791;BME280;69278;52.220;5.172;2024-02-26T00:10:10;100109.41;;;6.53;83.91
79791;BME280;69278;52.220;5.172;2024-02-26T00:12:36;100111.31;;;6.51;84.20
79791;BME280;69278;52.220;5.172;2024-02-26T00:15:06;100091.13;;;6.42;84.05
79791;BME280;69278;52.220;5.172;2024-02-26T00:17:33;100055.19;;;6.14;84.00
79791;BME280;69278;52.220;5.172;2024-02-26T00:20:01;100088.47;;;6.33;84.05
79791;BME280;69278;52.220;5.172;2024-02-26T00:22:31;100088.47;;;6.33;84.09
79791;BME280;69278;52.220;5.172;2024-02-26T00:24:57;100112.75;;;6.44;84.04
79791;BME280;69278;52.220;5.172;2024-02-26T00:27:24;100079.03;;;6.21;84.23
79791;BME280;69278;52.220;5.172;2024-02-26T00:29:50;100107.22;;;6.38;83.88
79791;BME280;69278;52.220;5.172;2024-02-26T00:32:17;100086.16;;;6.19;83.88
79791;BME280;69278;52.220;5.172;2024-02-26T00:34:43;100087.72;;;6.21;83.88
79791;BME280;69278;52.220;5.172;2024-02-26T00:37:10;100099.44;;;6.27;84.05
79791;BME280;69278;52.220;5.172;2024-02-26T00:39:36;100102.91;;;6.27;83.95
79791;BME280;69278;52.220;5.172;2024-02-26T00:42:03;100126.34;;;6.38;84.02
79791;BME280;69278;52.220;5.172;2024-02-26T00:44:30;100112.38;;;6.28;83.60
79791;BME280;69278;52.220;5.172;2024-02-26T00:46:56;100127.44;;;6.36;83.64
79791;BME280;69278;52.220;5.172;2024-02-26T00:49:23;100130.06;;;6.36;83.86
79791;BME280;69278;52.220;5.172;2024-02-26T00:51:49;100108.16;;;6.16;83.54
79791;BME280;69278;52.220;5.172;2024-02-26T00:54:16;100111.00;;;6.24;83.59
79791;BME280;69278;52.220;5.172;2024-02-26T00:56:42;100068.44;;;6.01;83.51
79791;BME280;69278;52.220;5.172;2024-02-26T00:59:09;100123.16;;;6.35;83.75
79791;BME280;69278;52.220;5.172;2024-02-26T01:01:35;100098.53;;;6.17;83.74
79791;BME280;69278;52.220;5.172;2024-02-26T01:04:02;100099.38;;;6.17;83.68
79791;BME280;69278;52.220;5.172;2024-02-26T01:06:29;100121.63;;;6.32;83.70
79791;BME280;69278;52.220;5.172;2024-02-26T01:08:56;100109.00;;;6.17;83.68
79791;BME280;69278;52.220;5.172;2024-02-26T01:11:23;100092.78;;;6.02;83.91
79791;BME280;69278;52.220;5.172;2024-02-26T01:13:50;100106.53;;;6.15;83.88
79791;BME280;69278;52.220;5.172;2024-02-26T01:16:23;100131.75;;;6.26;83.77
79791;BME280;69278;52.220;5.172;2024-02-26T01:18:49;100100.63;;;6.02;83.98
79791;BME280;69278;52.220;5.172;2024-02-26T01:21:16;100101.19;;;6.06;84.02
79791;BME280;69278;52.220;5.172;2024-02-26T01:23:43;100132.16;;;6.21;83.98
79791;BME280;69278;52.220;5.172;2024-02-26T01:26:10;100132.00;;;6.23;83.98
79791;BME280;69278;52.220;5.172;2024-02-26T01:28:37;100140.13;;;6.20;84.12
79791;BME280;69278;52.220;5.172;2024-02-26T01:31:03;100134.91;;;6.20;84.23
79791;BME280;69278;52.220;5.172;2024-02-26T01:33:33;100137.06;;;6.15;84.38
79791;BME280;69278;52.220;5.172;2024-02-26T01:35:59;100140.63;;;6.14;84.22
79791;BME280;69278;52.220;5.172;2024-02-26T01:38:27;100122.38;;;6.03;84.25
79791;BME280;69278;52.220;5.172;2024-02-26T01:40:54;100135.91;;;6.08;84.05
79791;BME280;69278;52.220;5.172;2024-02-26T01:43:20;100108.59;;;6.00;84.36
79791;BME280;69278;52.220;5.172;2024-02-26T01:45:47;100138.00;;;6.14;84.08
79791;BME280;69278;52.220;5.172;2024-02-26T01:48:13;100114.63;;;6.01;84.15
79791;BME280;69278;52.220;5.172;2024-02-26T01:50:40;100135.38;;;6.14;84.14
79791;BME280;69278;52.220;5.172;2024-02-26T01:53:08;100125.16;;;6.11;83.99
79791;BME280;69278;52.220;5.172;2024-02-26T01:55:35;100133.16;;;6.09;84.29
79791;BME280;69278;52.220;5.172;2024-02-26T01:58:02;100131.47;;;6.08;84.10
79791;BME280;69278;52.220;5.172;2024-02-26T02:00:29;100129.94;;;6.06;84.39
79791;BME280;69278;52.220;5.172;2024-02-26T02:02:56;100104.69;;;5.95;84.11
79791;BME280;69278;52.220;5.172;2024-02-26T02:05:23;100142.78;;;6.09;83.95
79791;BME280;69278;52.220;5.172;2024-02-26T02:07:51;100083.25;;;5.69;84.20
79791;BME280;69278;52.220;5.172;2024-02-26T02:10:19;100108.19;;;5.84;84.24
79791;BME280;69278;52.220;5.172;2024-02-26T02:12:49;100126.16;;;5.98;84.09
79791;BME280;69278;52.220;5.172;2024-02-26T02:15:16;100129.16;;;5.94;83.96
79791;BME280;69278;52.220;5.172;2024-02-26T02:17:43;100128.47;;;5.92;84.22
79791;BME280;69278;52.220;5.172;2024-02-26T02:20:17;100157.44;;;6.00;83.92
79791;BME280;69278;52.220;5.172;2024-02-26T02:22:46;100138.53;;;5.96;83.99
79791;BME280;69278;52.220;5.172;2024-02-26T02:25:13;100121.94;;;5.86;84.04
79791;BME280;69278;52.220;5.172;2024-02-26T02:27:40;100114.69;;;5.79;83.67
79791;BME280;69278;52.220;5.172;2024-02-26T02:30:09;100109.47;;;5.79;83.58
79791;BME280;69278;52.220;5.172;2024-02-26T02:32:38;100147.81;;;6.00;83.58
79791;BME280;69278;52.220;5.172;2024-02-26T02:35:06;100164.75;;;6.06;83.57
79791;BME280;69278;52.220;5.172;2024-02-26T02:37:33;100160.97;;;6.10;83.61
79791;BME280;69278;52.220;5.172;2024-02-26T02:40:00;100161.75;;;6.11;83.77
79791;BME280;69278;52.220;5.172;2024-02-26T02:42:27;100114.13;;;5.75;83.62
79791;BME280;69278;52.220;5.172;2024-02-26T02:44:54;100130.50;;;5.88;83.79
79791;BME280;69278;52.220;5.172;2024-02-26T02:47:20;100156.47;;;6.01;83.68
79791;BME280;69278;52.220;5.172;2024-02-26T02:49:47;100112.44;;;5.74;83.25
79791;BME280;69278;52.220;5.172;2024-02-26T02:52:13;100134.06;;;5.87;83.51
79791;BME280;69278;52.220;5.172;2024-02-26T02:54:40;100167.25;;;6.08;83.21
79791;BME280;69278;52.220;5.172;2024-02-26T02:57:08;100156.97;;;5.95;83.03
79791;BME280;69278;52.220;5.172;2024-02-26T02:59:35;100168.72;;;6.00;83.23
79791;BME280;69278;52.220;5.172;2024-02-26T03:02:02;100173.28;;;6.08;83.22
79791;BME280;69278;52.220;5.172;2024-02-26T03:04:28;100143.31;;;5.80;83.18
79791;BME280;69278;52.220;5.172;2024-02-26T03:06:55;100133.94;;;5.78;83.19
79791;BME280;69278;52.220;5.172;2024-02-26T03:09:22;100136.69;;;5.76;82.88
79791;BME280;69278;52.220;5.172;2024-02-26T03:11:49;100195.50;;;6.14;83.05
79791;BME280;69278;52.220;5.172;2024-02-26T03:14:16;100205.84;;;6.15;82.82
79791;BME280;69278;52.220;5.172;2024-02-26T03:16:42;100203.94;;;6.17;82.75
79791;BME280;69278;52.220;5.172;2024-02-26T03:19:09;100184.72;;;6.07;82.66
79791;BME280;69278;52.220;5.172;2024-02-26T03:21:35;100202.88;;;6.20;83.00
79791;BME280;69278;52.220;5.172;2024-02-26T03:24:02;100205.84;;;6.15;82.37
79791;BME280;69278;52.220;5.172;2024-02-26T03:26:29;100207.50;;;6.16;82.72
79791;BME280;69278;52.220;5.172;2024-02-26T03:28:57;100213.31;;;6.20;82.77
79791;BME280;69278;52.220;5.172;2024-02-26T03:31:24;100217.81;;;6.18;82.57
79791;BME280;69278;52.220;5.172;2024-02-26T03:33:50;100219.50;;;6.19;82.75
79791;BME280;69278;52.220;5.172;2024-02-26T03:36:17;100165.19;;;5.90;82.29
79791;BME280;69278;52.220;5.172;2024-02-26T03:38:43;100224.84;;;6.17;82.74
79791;BME280;69278;52.220;5.172;2024-02-26T03:41:10;100192.47;;;5.97;82.94
79791;BME280;69278;52.220;5.172;2024-02-26T03:43:36;100225.41;;;6.21;82.84
79791;BME280;69278;52.220;5.172;2024-02-26T03:46:03;100085.97;;;5.36;82.53
79791;BME280;69278;52.220;5.172;2024-02-26T03:48:29;100212.88;;;6.15;82.80
79791;BME280;69278;52.220;5.172;2024-02-26T03:50:56;100220.44;;;6.18;82.69
79791;BME280;69278;52.220;5.172;2024-02-26T03:53:23;100190.22;;;5.93;82.71
79791;BME280;69278;52.220;5.172;2024-02-26T03:55:49;100202.41;;;6.03;83.06
79791;BME280;69278;52.220;5.172;2024-02-26T03:58:18;100181.56;;;5.92;82.84
79791;BME280;69278;52.220;5.172;2024-02-26T04:00:44;100246.34;;;6.21;82.74
79791;BME280;69278;52.220;5.172;2024-02-26T04:03:14;100248.00;;;6.22;82.52
79791;BME280;69278;52.220;5.172;2024-02-26T04:05:40;100232.00;;;6.15;83.03
79791;BME280;69278;52.220;5.172;2024-02-26T04:08:07;100251.94;;;6.27;82.87
79791;BME280;69278;52.220;5.172;2024-02-26T04:10:34;100190.72;;;5.87;82.51
79791;BME280;69278;52.220;5.172;2024-02-26T04:13:07;100112.06;;;5.36;82.75
79791;BME280;69278;52.220;5.172;2024-02-26T04:15:34;100228.09;;;6.10;82.61
79791;BME280;69278;52.220;5.172;2024-02-26T04:18:00;100259.88;;;6.26;82.84
79791;BME280;69278;52.220;5.172;2024-02-26T04:20:27;100262.13;;;6.30;82.80
79791;BME280;69278;52.220;5.172;2024-02-26T04:22:53;100249.19;;;6.18;82.93
79791;BME280;69278;52.220;5.172;2024-02-26T04:25:20;100270.34;;;6.26;82.60
79791;BME280;69278;52.220;5.172;2024-02-26T04:27:47;100262.63;;;6.24;82.73
79791;BME280;69278;52.220;5.172;2024-02-26T04:30:13;100158.44;;;5.55;82.53
79791;BME280;69278;52.220;5.172;2024-02-26T04:32:40;100244.50;;;6.00;82.83
79791;BME280;69278;52.220;5.172;2024-02-26T04:35:06;100244.97;;;5.94;82.55
79791;BME280;69278;52.220;5.172;2024-02-26T04:37:33;100235.72;;;5.90;83.04
79791;BME280;69278;52.220;5.172;2024-02-26T04:40:00;100279.84;;;6.16;83.03
79791;BME280;69278;52.220;5.172;2024-02-26T04:42:27;100261.25;;;5.98;83.08
79791;BME280;69278;52.220;5.172;2024-02-26T04:44:54;100285.69;;;6.08;83.29
79791;BME280;69278;52.220;5.172;2024-02-26T04:47:21;100234.28;;;5.75;83.06
79791;BME280;69278;52.220;5.172;2024-02-26T04:49:51;100237.84;;;5.74;83.21
79791;BME280;69278;52.220;5.172;2024-02-26T04:52:19;100285.34;;;6.01;83.57
79791;BME280;69278;52.220;5.172;2024-02-26T04:54:45;100289.88;;;5.99;83.61
79791;BME280;69278;52.220;5.172;2024-02-26T04:57:12;100274.94;;;5.90;83.50
79791;BME280;69278;52.220;5.172;2024-02-26T04:59:39;100286.31;;;6.00;83.95
79791;BME280;69278;52.220;5.172;2024-02-26T05:02:07;100222.88;;;5.65;83.97
79791;BME280;69278;52.220;5.172;2024-02-26T05:04:33;100284.88;;;5.96;83.87
79791;BME280;69278;52.220;5.172;2024-02-26T05:07:00;100262.44;;;5.83;83.66
79791;BME280;69278;52.220;5.172;2024-02-26T05:09:27;100287.38;;;5.98;83.82
79791;BME280;69278;52.220;5.172;2024-02-26T05:11:53;100266.56;;;5.74;84.03
79791;BME280;69278;52.220;5.172;2024-02-26T05:14:20;100242.38;;;5.61;84.26
79791;BME280;69278;52.220;5.172;2024-02-26T05:16:47;100288.69;;;5.92;84.23
79791;BME280;69278;52.220;5.172;2024-02-26T05:19:13;100296.31;;;5.95;84.48
79791;BME280;69278;52.220;5.172;2024-02-26T05:21:40;100252.94;;;5.71;84.57
79791;BME280;69278;52.220;5.172;2024-02-26T05:24:08;100297.94;;;5.96;84.20
79791;BME280;69278;52.220;5.172;2024-02-26T05:26:35;100304.16;;;5.95;84.27
79791;BME280;69278;52.220;5.172;2024-02-26T05:29:02;100303.19;;;5.96;84.07
79791;BME280;69278;52.220;5.172;2024-02-26T05:31:28;100315.53;;;5.94;84.16
79791;BME280;69278;52.220;5.172;2024-02-26T05:33:55;100285.34;;;5.79;84.27
79791;BME280;69278;52.220;5.172;2024-02-26T05:36:23;100318.00;;;5.96;84.88
79791;BME280;69278;52.220;5.172;2024-02-26T05:38:49;100245.94;;;5.49;84.51
79791;BME280;69278;52.220;5.172;2024-02-26T05:41:16;100308.53;;;5.95;84.79
79791;BME280;69278;52.220;5.172;2024-02-26T05:43:49;100309.38;;;5.95;84.88
79791;BME280;69278;52.220;5.172;2024-02-26T05:46:17;100286.53;;;5.75;84.69
79791;BME280;69278;52.220;5.172;2024-02-26T05:48:46;100290.81;;;5.76;84.67
79791;BME280;69278;52.220;5.172;2024-02-26T05:51:14;100312.81;;;5.85;85.16
79791;BME280;69278;52.220;5.172;2024-02-26T05:53:41;100303.63;;;5.79;85.26
79791;BME280;69278;52.220;5.172;2024-02-26T05:56:07;100323.88;;;5.88;85.19
79791;BME280;69278;52.220;5.172;2024-02-26T05:58:34;100271.09;;;5.61;85.01
79791;BME280;69278;52.220;5.172;2024-02-26T06:01:01;100331.22;;;5.94;85.18
79791;BME280;69278;52.220;5.172;2024-02-26T06:03:27;100310.28;;;5.83;85.14
79791;BME280;69278;52.220;5.172;2024-02-26T06:05:54;100307.31;;;5.77;85.43
79791;BME280;69278;52.220;5.172;2024-02-26T06:08:21;100331.19;;;5.83;85.21
79791;BME280;69278;52.220;5.172;2024-02-26T06:10:48;100316.31;;;5.84;85.72
79791;BME280;69278;52.220;5.172;2024-02-26T06:13:15;100304.94;;;5.74;85.38
79791;BME280;69278;52.220;5.172;2024-02-26T06:15:41;100227.03;;;5.23;85.38
79791;BME280;69278;52.220;5.172;2024-02-26T06:18:08;100295.31;;;5.63;85.36
79791;BME280;69278;52.220;5.172;2024-02-26T06:20:34;100363.06;;;5.99;84.96
79791;BME280;69278;52.220;5.172;2024-02-26T06:23:01;100326.91;;;5.82;85.02
79791;BME280;69278;52.220;5.172;2024-02-26T06:25:27;100331.28;;;5.82;85.22
79791;BME280;69278;52.220;5.172;2024-02-26T06:27:54;100371.50;;;6.03;85.48
79791;BME280;69278;52.220;5.172;2024-02-26T06:30:21;100357.56;;;5.91;85.68
79791;BME280;69278;52.220;5.172;2024-02-26T06:32:48;100375.88;;;5.91;85.25
79791;BME280;69278;52.220;5.172;2024-02-26T06:35:15;100369.44;;;5.84;85.46
79791;BME280;69278;52.220;5.172;2024-02-26T06:37:41;100363.00;;;5.77;85.44
79791;BME280;69278;52.220;5.172;2024-02-26T06:40:08;100364.69;;;5.78;85.85
79791;BME280;69278;52.220;5.172;2024-02-26T06:42:35;100334.50;;;5.63;85.68
79791;BME280;69278;52.220;5.172;2024-02-26T06:45:02;100353.03;;;5.71;85.63
79791;BME280;69278;52.220;5.172;2024-02-26T06:47:30;100396.19;;;5.88;86.29
79791;BME280;69278;52.220;5.172;2024-02-26T06:49:57;100374.41;;;5.76;86.38
79791;BME280;69278;52.220;5.172;2024-02-26T06:52:25;100398.69;;;5.89;86.26
79791;BME280;69278;52.220;5.172;2024-02-26T06:54:52;100360.25;;;5.68;86.45
79791;BME280;69278;52.220;5.172;2024-02-26T06:57:20;100413.50;;;5.89;86.47
79791;BME280;69278;52.220;5.172;2024-02-26T06:59:47;100405.81;;;5.87;86.55
79791;BME280;69278;52.220;5.172;2024-02-26T07:02:14;100399.13;;;5.83;86.61
79791;BME280;69278;52.220;5.172;2024-02-26T07:04:40;100425.78;;;5.99;87.63
79791;BME280;69278;52.220;5.172;2024-02-26T07:07:07;100422.44;;;6.53;89.50
79791;BME280;69278;52.220;5.172;2024-02-26T07:09:34;100415.69;;;6.93;89.49
79791;BME280;69278;52.220;5.172;2024-02-26T07:12:00;100428.09;;;7.44;88.03
79791;BME280;69278;52.220;5.172;2024-02-26T07:14:27;100432.84;;;7.70;86.46
79791;BME280;69278;52.220;5.172;2024-02-26T07:16:54;100424.16;;;7.90;85.08
79791;BME280;69278;52.220;5.172;2024-02-26T07:19:20;100432.47;;;7.95;82.79
79791;BME280;69278;52.220;5.172;2024-02-26T07:21:47;100431.56;;;8.06;81.23
79791;BME280;69278;52.220;5.172;2024-02-26T07:24:13;100432.16;;;7.89;79.87
79791;BME280;69278;52.220;5.172;2024-02-26T07:26:40;100442.56;;;8.00;81.69
79791;BME280;69278;52.220;5.172;2024-02-26T07:29:07;100395.81;;;7.75;81.12
79791;BME280;69278;52.220;5.172;2024-02-26T07:31:34;100437.38;;;8.10;78.92
79791;BME280;69278;52.220;5.172;2024-02-26T07:34:00;100435.09;;;7.95;79.23
79791;BME280;69278;52.220;5.172;2024-02-26T07:36:27;100449.94;;;7.85;78.45
79791;BME280;69278;52.220;5.172;2024-02-26T07:38:53;100459.56;;;7.85;79.00
79791;BME280;69278;52.220;5.172;2024-02-26T07:41:20;100463.09;;;7.74;78.68
79791;BME280;69278;52.220;5.172;2024-02-26T07:43:47;100424.16;;;7.49;79.46
79791;BME280;69278;52.220;5.172;2024-02-26T07:46:15;100443.31;;;7.29;79.01
79791;BME280;69278;52.220;5.172;2024-02-26T07:48:41;100466.50;;;7.33;79.99
79791;BME280;69278;52.220;5.172;2024-02-26T07:51:08;100451.19;;;7.29;80.45
79791;BME280;69278;52.220;5.172;2024-02-26T07:53:35;100433.84;;;7.17;80.87
79791;BME280;69278;52.220;5.172;2024-02-26T07:56:02;100450.03;;;7.43;79.89
79791;BME280;69278;52.220;5.172;2024-02-26T07:58:32;100477.56;;;7.37;79.25
79791;BME280;69278;52.220;5.172;2024-02-26T08:00:58;100454.41;;;7.21;79.66
79791;BME280;69278;52.220;5.172;2024-02-26T08:03:25;100451.44;;;7.15;79.94
79791;BME280;69278;52.220;5.172;2024-02-26T08:05:52;100455.66;;;7.06;80.02
79791;BME280;69278;52.220;5.172;2024-02-26T08:08:19;100479.16;;;7.28;79.91
79791;BME280;69278;52.220;5.172;2024-02-26T08:10:45;100499.84;;;7.31;79.16
79791;BME280;69278;52.220;5.172;2024-02-26T08:13:12;100466.69;;;6.56;80.15
79791;BME280;69278;52.220;5.172;2024-02-26T08:15:38;100510.53;;;6.52;81.46
79791;BME280;69278;52.220;5.172;2024-02-26T08:18:05;100509.22;;;6.36;82.27
79791;BME280;69278;52.220;5.172;2024-02-26T08:20:32;100508.03;;;6.29;83.07
79791;BME280;69278;52.220;5.172;2024-02-26T08:22:58;100467.28;;;5.80;83.03
79791;BME280;69278;52.220;5.172;2024-02-26T08:25:25;100526.06;;;6.10;83.82
79791;BME280;69278;52.220;5.172;2024-02-26T08:27:52;100522.34;;;6.01;83.96
79791;BME280;69278;52.220;5.172;2024-02-26T08:30:18;100520.09;;;5.96;84.27
79791;BME280;69278;52.220;5.172;2024-02-26T08:32:47;100534.34;;;5.92;84.31
79791;BME280;69278;52.220;5.172;2024-02-26T08:35:18;100533.88;;;5.98;84.63
79791;BME280;69278;52.220;5.172;2024-02-26T08:37:45;100536.47;;;5.98;84.63
79791;BME280;69278;52.220;5.172;2024-02-26T08:40:13;100506.69;;;5.77;84.29
79791;BME280;69278;52.220;5.172;2024-02-26T08:42:40;100521.19;;;5.81;84.61
79791;BME280;69278;52.220;5.172;2024-02-26T08:45:08;100544.41;;;5.86;84.48
79791;BME280;69278;52.220;5.172;2024-02-26T08:47:34;100539.44;;;5.94;84.54
79791;BME280;69278;52.220;5.172;2024-02-26T08:50:01;100531.88;;;5.78;84.49
79791;BME280;69278;52.220;5.172;2024-02-26T08:52:28;100532.31;;;5.72;84.60
79791;BME280;69278;52.220;5.172;2024-02-26T08:54:55;100558.56;;;5.94;84.66
79791;BME280;69278;52.220;5.172;2024-02-26T08:57:21;100551.47;;;5.84;84.12
79791;BME280;69278;52.220;5.172;2024-02-26T08:59:48;100537.00;;;5.80;84.41
79791;BME280;69278;52.220;5.172;2024-02-26T09:02:15;100568.09;;;5.95;84.74
79791;BME280;69278;52.220;5.172;2024-02-26T09:04:41;100448.88;;;5.12;84.34
79791;BME280;69278;52.220;5.172;2024-02-26T09:07:08;100570.09;;;5.92;84.42
79791;BME280;69278;52.220;5.172;2024-02-26T09:09:34;100571.97;;;5.90;84.40
79791;BME280;69278;52.220;5.172;2024-02-26T09:12:02;100578.91;;;6.02;84.26
79791;BME280;69278;52.220;5.172;2024-02-26T09:14:31;100599.13;;;6.00;83.87
79791;BME280;69278;52.220;5.172;2024-02-26T09:16:58;100556.31;;;5.90;84.78
79791;BME280;69278;52.220;5.172;2024-02-26T09:19:25;100576.59;;;6.32;82.96
79791;BME280;69278;52.220;5.172;2024-02-26T09:21:53;100588.16;;;6.41;81.91
79791;BME280;69278;52.220;5.172;2024-02-26T09:24:24;100592.19;;;6.34;82.06
79791;BME280;69278;52.220;5.172;2024-02-26T09:26:51;100578.94;;;6.13;82.45
79791;BME280;69278;52.220;5.172;2024-02-26T09:29:18;100596.44;;;6.13;82.88
79791;BME280;69278;52.220;5.172;2024-02-26T09:31:44;100606.28;;;6.20;82.71
79791;BME280;69278;52.220;5.172;2024-02-26T09:34:14;100608.31;;;6.17;82.61
79791;BME280;69278;52.220;5.172;2024-02-26T09:36:40;100621.81;;;6.11;82.65
79791;BME280;69278;52.220;5.172;2024-02-26T09:39:07;100593.25;;;5.96;82.75
79791;BME280;69278;52.220;5.172;2024-02-26T09:41:38;100605.50;;;5.96;83.08
79791;BME280;69278;52.220;5.172;2024-02-26T09:44:05;100597.41;;;5.88;83.01
79791;BME280;69278;52.220;5.172;2024-02-26T09:46:32;100635.16;;;6.08;83.47
79791;BME280;69278;52.220;5.172;2024-02-26T09:48:59;100618.25;;;6.00;83.35
79791;BME280;69278;52.220;5.172;2024-02-26T09:51:26;100630.97;;;6.05;83.43
79791;BME280;69278;52.220;5.172;2024-02-26T09:53:53;100638.34;;;6.11;83.65
79791;BME280;69278;52.220;5.172;2024-02-26T09:56:21;100642.03;;;6.09;83.81
79791;BME280;69278;52.220;5.172;2024-02-26T09:58:50;100634.03;;;5.99;84.32
79791;BME280;69278;52.220;5.172;2024-02-26T10:01:20;100649.88;;;6.09;84.98
79791;BME280;69278;52.220;5.172;2024-02-26T10:03:55;100634.38;;;5.94;85.03
79791;BME280;69278;52.220;5.172;2024-02-26T10:06:25;100642.19;;;5.94;84.84
79791;BME280;69278;52.220;5.172;2024-02-26T10:08:53;100625.81;;;5.92;84.87
79791;BME280;69278;52.220;5.172;2024-02-26T10:11:20;100664.50;;;6.11;84.68
79791;BME280;69278;52.220;5.172;2024-02-26T10:13:47;100667.81;;;6.13;84.93
79791;BME280;69278;52.220;5.172;2024-02-26T10:16:14;100670.34;;;6.15;84.94
79791;BME280;69278;52.220;5.172;2024-02-26T10:18:47;100638.16;;;5.90;84.79
79791;BME280;69278;52.220;5.172;2024-02-26T10:21:20;100670.56;;;6.12;84.97
79791;BME280;69278;52.220;5.172;2024-02-26T10:23:47;100635.53;;;5.90;85.29
79791;BME280;69278;52.220;5.172;2024-02-26T10:26:14;100680.19;;;6.11;85.28
79791;BME280;69278;52.220;5.172;2024-02-26T10:28:43;100678.84;;;6.06;85.60
79791;BME280;69278;52.220;5.172;2024-02-26T10:31:13;100697.13;;;6.06;85.59
79791;BME280;69278;52.220;5.172;2024-02-26T10:33:41;100688.22;;;6.08;85.93
79791;BME280;69278;52.220;5.172;2024-02-26T10:36:09;100699.94;;;6.15;85.72
79791;BME280;69278;52.220;5.172;2024-02-26T10:38:37;100706.22;;;6.13;85.75
79791;BME280;69278;52.220;5.172;2024-02-26T10:41:05;100704.66;;;6.10;85.68
79791;BME280;69278;52.220;5.172;2024-02-26T10:43:37;100667.75;;;5.91;85.99
79791;BME280;69278;52.220;5.172;2024-02-26T10:46:04;100701.72;;;6.15;86.20
79791;BME280;69278;52.220;5.172;2024-02-26T10:48:31;100670.66;;;5.86;86.16
79791;BME280;69278;52.220;5.172;2024-02-26T10:50:59;100624.38;;;5.52;86.48
79791;BME280;69278;52.220;5.172;2024-02-26T10:53:29;100724.13;;;6.06;86.21
79791;BME280;69278;52.220;5.172;2024-02-26T10:56:03;100658.28;;;5.65;86.52
79791;BME280;69278;52.220;5.172;2024-02-26T10:58:31;100730.56;;;6.13;86.67
79791;BME280;69278;52.220;5.172;2024-02-26T11:00:59;100720.56;;;6.07;86.67
79791;BME280;69278;52.220;5.172;2024-02-26T11:03:26;100721.63;;;6.05;86.53
79791;BME280;69278;52.220;5.172;2024-02-26T11:05:53;100736.31;;;6.18;86.25
79791;BME280;69278;52.220;5.172;2024-02-26T11:08:21;100743.72;;;6.24;86.66
79791;BME280;69278;52.220;5.172;2024-02-26T11:10:52;100714.72;;;6.03;87.03
79791;BME280;69278;52.220;5.172;2024-02-26T11:13:19;100751.94;;;6.31;87.07
79791;BME280;69278;52.220;5.172;2024-02-26T11:15:48;100723.06;;;6.09;86.64
79791;BME280;69278;52.220;5.172;2024-02-26T11:18:16;100747.88;;;6.27;86.85
79791;BME280;69278;52.220;5.172;2024-02-26T11:20:48;100724.28;;;6.16;86.48
79791;BME280;69278;52.220;5.172;2024-02-26T11:23:14;100758.53;;;6.36;85.66
79791;BME280;69278;52.220;5.172;2024-02-26T11:25:42;100751.75;;;6.45;86.07
79791;BME280;69278;52.220;5.172;2024-02-26T11:28:14;100717.25;;;6.40;84.91
79791;BME280;69278;52.220;5.172;2024-02-26T11:30:45;100771.94;;;6.90;85.11
79791;BME280;69278;52.220;5.172;2024-02-26T11:33:16;100755.25;;;6.91;83.89
79791;BME280;69278;52.220;5.172;2024-02-26T11:35:45;100771.44;;;6.85;83.26
79791;BME280;69278;52.220;5.172;2024-02-26T11:38:26;100784.69;;;6.71;84.07
79791;BME280;69278;52.220;5.172;2024-02-26T11:40:53;100773.41;;;6.71;84.07
79791;BME280;69278;52.220;5.172;2024-02-26T11:43:49;100781.59;;;6.66;84.26
79791;BME280;69278;52.220;5.172;2024-02-26T11:46:32;100779.91;;;6.54;84.08
79791;BME280;69278;52.220;5.172;2024-02-26T11:49:01;100786.94;;;6.64;84.05
79791;BME280;69278;52.220;5.172;2024-02-26T11:51:33;100772.63;;;6.57;83.65
79791;BME280;69278;52.220;5.172;2024-02-26T11:54:01;100786.19;;;6.51;83.54
79791;BME280;69278;52.220;5.172;2024-02-26T11:56:27;100796.81;;;6.61;83.75
79791;BME280;69278;52.220;5.172;2024-02-26T11:59:03;100793.13;;;6.63;84.13
79791;BME280;69278;52.220;5.172;2024-02-26T12:04:11;100793.94;;;6.64;83.43
79791;BME280;69278;52.220;5.172;2024-02-26T12:06:45;100799.44;;;6.61;82.93
79791;BME280;69278;52.220;5.172;2024-02-26T12:09:12;100801.34;;;6.70;83.42
79791;BME280;69278;52.220;5.172;2024-02-26T12:11:42;100802.78;;;6.74;83.17
79791;BME280;69278;52.220;5.172;2024-02-26T12:14:09;100802.44;;;6.79;82.84
79791;BME280;69278;52.220;5.172;2024-02-26T12:16:37;100791.22;;;6.65;82.42
79791;BME280;69278;52.220;5.172;2024-02-26T12:19:08;100817.78;;;6.72;82.11
79791;BME280;69278;52.220;5.172;2024-02-26T12:21:36;100820.91;;;6.77;82.44
79791;BME280;69278;52.220;5.172;2024-02-26T12:24:11;100809.00;;;6.73;82.75
79791;BME280;69278;52.220;5.172;2024-02-26T12:26:39;100830.44;;;6.78;82.45
79791;BME280;69278;52.220;5.172;2024-02-26T12:29:06;100825.41;;;6.75;81.92
79791;BME280;69278;52.220;5.172;2024-02-26T12:31:34;100821.09;;;6.74;82.03
79791;BME280;69278;52.220;5.172;2024-02-26T12:34:00;100804.56;;;6.74;81.71
79791;BME280;69278;52.220;5.172;2024-02-26T12:36:28;100770.47;;;6.51;82.14
79791;BME280;69278;52.220;5.172;2024-02-26T12:38:55;100827.00;;;6.89;81.85
79791;BME280;69278;52.220;5.172;2024-02-26T12:41:22;100829.28;;;6.93;81.61
79791;BME280;69278;52.220;5.172;2024-02-26T12:43:49;100780.59;;;6.56;81.03
79791;BME280;69278;52.220;5.172;2024-02-26T12:46:16;100813.00;;;6.66;81.54
79791;BME280;69278;52.220;5.172;2024-02-26T12:48:43;100842.38;;;6.93;81.06
79791;BME280;69278;52.220;5.172;2024-02-26T12:51:14;100855.94;;;6.98;81.84
79791;BME280;69278;52.220;5.172;2024-02-26T12:53:43;100848.72;;;7.02;81.90
79791;BME280;69278;52.220;5.172;2024-02-26T12:56:11;100832.50;;;6.97;81.59
79791;BME280;69278;52.220;5.172;2024-02-26T12:58:39;100843.56;;;7.00;80.84
79791;BME280;69278;52.220;5.172;2024-02-26T13:01:07;100862.41;;;7.05;80.69
79791;BME280;69278;52.220;5.172;2024-02-26T13:03:40;100835.19;;;6.84;80.47